Terminal Aerodrome Forecast
Issued by NWS

Home | Current Version | Previous Version | Text Only | Print | Product List | Glossary On
Versions: 1 2 3 4 5 6 7 8 9 10 11 12 13 14 15 16 17 18
000
FTUS43 KAPX 011738
TAFPLN
TAF
KPLN 011738Z 0118/0218 13006KT P6SM SCT150
     FM020000 15010KT P6SM VCSH OVC070
     FM020300 15012G18KT P6SM OVC150 WS007/23040KT
     FM021400 21012G18KT 5SM -RA OVC040=

USA.gov is the U.S. government's official web portal to all federal, state and local government web resources and services.